createdAt,value
2022-09-15T00:01:20.398Z,16.60
2022-09-15T00:03:48.961Z,16.60
2022-09-15T00:06:17.916Z,16.50
2022-09-15T00:08:46.470Z,16.50
2022-09-15T00:11:17.852Z,16.50
2022-09-15T00:13:48.568Z,16.50
2022-09-15T00:16:17.338Z,16.40
2022-09-15T00:18:46.310Z,16.40
2022-09-15T00:21:17.497Z,16.40
2022-09-15T00:23:45.736Z,16.40
2022-09-15T00:26:15.494Z,16.40
2022-09-15T00:28:43.945Z,16.40
2022-09-15T00:31:19.269Z,16.30
2022-09-15T00:33:48.172Z,16.30
2022-09-15T00:36:16.496Z,16.30
2022-09-15T00:38:45.423Z,16.30
2022-09-15T00:41:17.230Z,16.20
2022-09-15T00:43:53.152Z,16.20
2022-09-15T00:46:25.895Z,16.20
2022-09-15T00:49:15.003Z,16.20
2022-09-15T00:51:52.250Z,16.20
2022-09-15T00:54:29.152Z,16.10
2022-09-15T00:56:58.770Z,16.10
2022-09-15T00:59:28.127Z,16.10
2022-09-15T01:01:59.248Z,16.10
2022-09-15T01:04:27.649Z,16.10
2022-09-15T01:06:59.414Z,16.10
2022-09-15T01:09:28.862Z,16.00
2022-09-15T01:11:57.073Z,16.00
2022-09-15T01:14:25.214Z,16.00
2022-09-15T01:16:56.242Z,16.00
2022-09-15T01:19:39.525Z,16.00
2022-09-15T01:22:25.714Z,16.00
2022-09-15T01:25:12.301Z,15.90
2022-09-15T01:27:43.317Z,15.90
2022-09-15T01:30:24.366Z,15.90
2022-09-15T01:33:05.792Z,15.90
2022-09-15T01:35:55.215Z,15.90
2022-09-15T01:38:41.967Z,15.90
2022-09-15T01:41:15.091Z,15.90
2022-09-15T01:43:52.237Z,15.90
2022-09-15T01:46:21.285Z,15.80
2022-09-15T01:48:49.830Z,15.80
2022-09-15T01:51:18.672Z,15.80
2022-09-15T01:53:46.721Z,15.80
2022-09-15T01:56:14.977Z,15.80
2022-09-15T01:58:42.947Z,15.70
2022-09-15T02:01:14.568Z,15.70
2022-09-15T02:03:44.952Z,15.70
2022-09-15T02:06:22.924Z,15.70
2022-09-15T02:08:58.970Z,15.70
2022-09-15T02:11:28.502Z,15.70
2022-09-15T02:14:10.951Z,15.70
2022-09-15T02:16:41.871Z,15.70
2022-09-15T02:19:15.881Z,15.60
2022-09-15T02:21:46.902Z,15.60
2022-09-15T02:24:19.631Z,15.60
2022-09-15T02:26:50.044Z,15.60
2022-09-15T02:29:21.534Z,15.60
2022-09-15T02:31:51.122Z,15.60
2022-09-15T02:34:45.765Z,15.60
2022-09-15T02:37:14.358Z,15.60
2022-09-15T02:39:49.201Z,15.60
2022-09-15T02:42:27.392Z,15.60
2022-09-15T02:44:55.658Z,15.50
2022-09-15T02:47:23.849Z,15.50
2022-09-15T02:49:52.215Z,15.50
2022-09-15T02:52:20.803Z,15.50
2022-09-15T02:54:49.368Z,15.50
2022-09-15T02:57:17.327Z,15.50
2022-09-15T03:00:03.936Z,15.40
2022-09-15T03:02:32.568Z,15.40
2022-09-15T03:05:00.709Z,15.40
2022-09-15T03:07:28.898Z,15.40
2022-09-15T03:10:02.459Z,15.40
2022-09-15T03:12:32.476Z,15.40
2022-09-15T03:15:00.397Z,15.40
2022-09-15T03:17:28.369Z,15.40
2022-09-15T03:19:56.305Z,15.30
2022-09-15T03:22:25.020Z,15.30
2022-09-15T03:24:55.197Z,15.30
2022-09-15T03:27:23.455Z,15.30
2022-09-15T03:29:51.436Z,15.30
2022-09-15T03:32:22.881Z,15.30
2022-09-15T03:34:57.726Z,15.20
2022-09-15T03:37:26.870Z,15.20
2022-09-15T03:39:55.525Z,15.20
2022-09-15T03:42:23.657Z,15.20
2022-09-15T03:44:51.629Z,15.20
2022-09-15T03:47:19.781Z,15.20
2022-09-15T03:49:50.575Z,15.20
2022-09-15T03:52:18.670Z,15.20
2022-09-15T03:54:48.406Z,15.10
2022-09-15T03:57:16.732Z,15.10
2022-09-15T03:59:44.942Z,15.10
2022-09-15T04:02:13.071Z,15.10
2022-09-15T04:04:41.721Z,15.10
2022-09-15T04:07:11.880Z,15.10
2022-09-15T04:09:39.930Z,15.10
2022-09-15T04:12:08.024Z,15.10
2022-09-15T04:14:35.966Z,15.10
2022-09-15T04:17:06.644Z,15.10
2022-09-15T04:19:34.915Z,15.10
2022-09-15T04:22:05.126Z,15.20
2022-09-15T04:24:37.734Z,15.20
2022-09-15T04:27:05.900Z,15.20
2022-09-15T04:29:36.252Z,15.30
2022-09-15T04:32:04.259Z,15.30
2022-09-15T04:34:32.551Z,15.40
2022-09-15T04:37:00.590Z,15.40
2022-09-15T04:39:28.646Z,15.40
2022-09-15T04:41:57.569Z,15.50
2022-09-15T04:44:25.596Z,15.50
2022-09-15T04:46:53.675Z,15.60
2022-09-15T04:49:23.074Z,15.60
2022-09-15T04:51:54.888Z,15.70
2022-09-15T04:54:22.839Z,15.80
2022-09-15T04:56:50.962Z,15.90
2022-09-15T04:59:19.628Z,16.00
2022-09-15T05:01:48.124Z,16.00
2022-09-15T05:04:16.257Z,16.10
2022-09-15T05:06:44.201Z,16.20
2022-09-15T05:09:13.253Z,16.20
2022-09-15T05:11:41.354Z,16.30
2022-09-15T05:14:10.559Z,16.40
2022-09-15T05:16:38.831Z,16.50
2022-09-15T05:19:09.247Z,16.60
2022-09-15T05:21:37.389Z,16.70
2022-09-15T05:24:05.463Z,16.80
2022-09-15T05:26:33.492Z,16.90
2022-09-15T05:29:01.463Z,17.00
2022-09-15T05:31:34.255Z,17.10
2022-09-15T05:34:04.102Z,17.20
2022-09-15T05:36:32.440Z,17.40
2022-09-15T05:39:02.669Z,17.50
2022-09-15T05:41:33.624Z,17.70
2022-09-15T05:44:01.812Z,17.90
2022-09-15T05:46:31.420Z,18.00
2022-09-15T05:48:59.827Z,18.20
2022-09-15T05:51:30.833Z,18.40
2022-09-15T05:53:58.873Z,18.60
2022-09-15T05:56:29.084Z,18.80
2022-09-15T05:58:57.720Z,19.00
2022-09-15T06:01:26.963Z,19.20
2022-09-15T06:03:56.713Z,19.40
2022-09-15T06:06:25.404Z,19.70
2022-09-15T06:08:58.422Z,20.00
2022-09-15T06:11:28.713Z,20.20
2022-09-15T06:14:03.444Z,20.50
2022-09-15T06:16:32.567Z,20.90
2022-09-15T06:19:01.600Z,21.30
2022-09-15T06:21:30.331Z,21.70
2022-09-15T06:24:04.882Z,22.20
2022-09-15T06:26:33.606Z,22.70
2022-09-15T06:29:02.930Z,23.20
2022-09-15T06:31:34.080Z,23.60
2022-09-15T06:34:04.144Z,24.00
2022-09-15T06:36:32.952Z,24.40
2022-09-15T06:39:00.879Z,24.80
2022-09-15T06:41:42.678Z,25.10
2022-09-15T06:44:23.655Z,25.30
2022-09-15T06:46:54.593Z,25.60
2022-09-15T06:49:22.653Z,25.90
2022-09-15T06:51:50.572Z,26.10
2022-09-15T06:54:18.565Z,26.40
2022-09-15T06:56:49.426Z,26.60
2022-09-15T06:59:20.961Z,26.90
2022-09-15T07:01:53.340Z,27.30
2022-09-15T07:04:22.148Z,27.60
2022-09-15T07:06:50.955Z,28.00
2022-09-15T07:09:21.445Z,28.40
2022-09-15T07:11:51.893Z,28.80
2022-09-15T07:14:19.813Z,29.30
2022-09-15T07:16:47.817Z,29.60
2022-09-15T07:19:18.099Z,29.80
2022-09-15T07:21:46.880Z,30.20
2022-09-15T07:24:17.094Z,30.60
2022-09-15T07:26:45.156Z,31.00
2022-09-15T07:29:13.287Z,31.30
2022-09-15T07:31:44.059Z,31.50
2022-09-15T07:34:12.535Z,31.80
2022-09-15T07:36:40.874Z,32.20
2022-09-15T07:39:14.095Z,32.50
2022-09-15T07:41:45.128Z,32.70
2022-09-15T07:44:16.209Z,32.90
2022-09-15T07:46:45.043Z,33.10
2022-09-15T07:49:13.080Z,33.30
2022-09-15T07:51:43.312Z,33.40
2022-09-15T07:54:13.488Z,33.70
2022-09-15T07:56:44.842Z,34.10
2022-09-15T07:59:12.956Z,34.40
2022-09-15T08:01:43.407Z,34.80
2022-09-15T08:04:13.675Z,35.20
2022-09-15T08:06:41.673Z,35.50
2022-09-15T08:09:15.190Z,35.90
2022-09-15T08:11:45.562Z,36.20
2022-09-15T08:14:13.679Z,36.50
2022-09-15T08:16:45.189Z,36.90
2022-09-15T08:19:16.510Z,37.10
2022-09-15T08:21:44.519Z,37.40
2022-09-15T08:24:16.964Z,37.80
2022-09-15T08:26:47.386Z,38.00
2022-09-15T08:29:15.641Z,38.20
2022-09-15T08:31:45.865Z,38.60
2022-09-15T08:34:14.795Z,38.80
2022-09-15T08:36:43.177Z,39.00
2022-09-15T08:39:11.231Z,39.00
2022-09-15T08:41:43.106Z,38.80
2022-09-15T08:44:24.215Z,38.60
2022-09-15T08:46:58.813Z,38.50
2022-09-15T08:49:52.543Z,38.50
2022-09-15T08:52:30.907Z,38.50
2022-09-15T08:55:00.475Z,38.40
2022-09-15T08:57:30.947Z,38.70
2022-09-15T09:00:01.431Z,38.30
2022-09-15T09:02:35.587Z,38.80
2022-09-15T09:05:23.035Z,38.70
2022-09-15T09:08:06.280Z,39.00
2022-09-15T09:10:42.587Z,39.10
2022-09-15T09:13:15.946Z,39.30
2022-09-15T09:15:53.920Z,39.10
2022-09-15T09:18:35.720Z,39.40
2022-09-15T09:21:14.861Z,39.30
2022-09-15T09:23:49.084Z,39.10
2022-09-15T09:26:18.225Z,39.60
2022-09-15T09:28:47.889Z,39.70
2022-09-15T09:31:20.156Z,40.20
2022-09-15T09:33:57.335Z,40.50
2022-09-15T09:36:26.223Z,40.70
2022-09-15T09:38:59.392Z,41.40
2022-09-15T09:41:39.294Z,41.70
2022-09-15T09:44:10.639Z,41.70
2022-09-15T09:46:40.156Z,42.20
2022-09-15T09:49:17.113Z,42.60
2022-09-15T09:52:02.732Z,42.60
2022-09-15T09:54:32.577Z,42.50
2022-09-15T09:57:20.907Z,42.40
2022-09-15T09:59:50.128Z,42.20
2022-09-15T10:02:22.231Z,42.20
2022-09-15T10:04:52.202Z,42.30
2022-09-15T10:07:26.907Z,42.30
2022-09-15T10:09:56.623Z,42.60
2022-09-15T10:12:34.869Z,42.80
2022-09-15T10:15:06.034Z,43.00
2022-09-15T10:17:37.052Z,43.10
2022-09-15T10:20:06.644Z,43.00
2022-09-15T10:22:34.745Z,42.80
2022-09-15T10:25:39.541Z,42.60
2022-09-15T10:28:14.934Z,42.30
2022-09-15T10:30:58.972Z,41.80
2022-09-15T10:33:35.329Z,41.80
2022-09-15T10:36:06.464Z,42.00
2022-09-15T10:38:44.150Z,42.00
2022-09-15T10:41:14.790Z,41.70
2022-09-15T10:43:48.482Z,42.00
2022-09-15T10:46:39.367Z,42.10
2022-09-15T10:49:07.524Z,42.30
2022-09-15T10:51:43.239Z,42.00
2022-09-15T10:54:28.170Z,41.90
2022-09-15T10:56:59.174Z,42.20
2022-09-15T10:59:34.137Z,42.40
2022-09-15T11:02:13.601Z,42.70
2022-09-15T11:05:05.089Z,42.90
2022-09-15T11:07:49.170Z,43.50
2022-09-15T11:10:20.528Z,43.60
2022-09-15T11:13:23.758Z,44.10
2022-09-15T11:16:08.485Z,44.20
2022-09-15T11:18:39.462Z,44.20
2022-09-15T11:21:25.879Z,44.10
2022-09-15T11:24:29.011Z,44.30
2022-09-15T11:27:08.593Z,44.40
2022-09-15T11:29:52.002Z,43.70
2022-09-15T11:32:23.023Z,43.90
2022-09-15T11:34:57.281Z,43.90
2022-09-15T11:37:27.968Z,43.40
2022-09-15T11:40:00.437Z,43.60
2022-09-15T11:42:48.878Z,43.70
2022-09-15T11:45:20.315Z,43.80
2022-09-15T11:47:51.139Z,44.00
2022-09-15T11:50:30.474Z,43.50
2022-09-15T11:53:01.057Z,43.00
2022-09-15T11:55:33.689Z,42.90
2022-09-15T11:58:21.045Z,42.80
2022-09-15T12:01:07.869Z,42.10
2022-09-15T12:03:39.555Z,41.30
2022-09-15T12:06:15.429Z,40.60
2022-09-15T12:08:47.344Z,39.80
2022-09-15T12:11:23.465Z,39.50
2022-09-15T12:13:52.530Z,38.70
2022-09-15T12:16:21.716Z,38.50
2022-09-15T12:18:53.324Z,38.60
2022-09-15T12:21:40.308Z,38.90
2022-09-15T12:24:14.625Z,38.60
2022-09-15T12:26:43.760Z,38.20
2022-09-15T12:29:26.838Z,37.50
2022-09-15T12:32:13.671Z,37.20
2022-09-15T12:34:55.049Z,36.70
2022-09-15T12:37:24.670Z,37.40
2022-09-15T12:39:54.266Z,38.20
2022-09-15T12:42:23.622Z,38.60
2022-09-15T12:44:54.761Z,38.30
2022-09-15T12:47:35.333Z,38.80
2022-09-15T12:50:07.619Z,39.00
2022-09-15T12:52:43.376Z,39.90
2022-09-15T12:55:17.619Z,39.80
2022-09-15T12:57:50.072Z,39.50
2022-09-15T13:00:21.132Z,39.40
2022-09-15T13:02:50.152Z,39.10
2022-09-15T13:05:39.041Z,38.90
2022-09-15T13:08:33.744Z,37.90
2022-09-15T13:11:21.961Z,37.40
2022-09-15T13:13:50.928Z,37.30
2022-09-15T13:16:22.416Z,37.20
2022-09-15T13:18:54.723Z,37.50
2022-09-15T13:21:24.033Z,37.80
2022-09-15T13:23:53.291Z,37.90
2022-09-15T13:26:24.362Z,38.20
2022-09-15T13:28:55.663Z,38.20
2022-09-15T13:31:24.932Z,38.20
2022-09-15T13:40:01.239Z,37.70
2022-09-15T13:42:32.733Z,37.70
2022-09-15T13:45:04.090Z,37.80
2022-09-15T13:47:31.989Z,37.90
2022-09-15T13:50:15.175Z,37.80
2022-09-15T13:52:53.618Z,37.60
2022-09-15T13:55:25.682Z,38.00
2022-09-15T14:00:55.613Z,37.20
2022-09-15T14:03:37.490Z,37.10
2022-09-15T14:06:13.437Z,36.70
2022-09-15T14:08:45.094Z,36.30
2022-09-15T14:11:21.797Z,35.70
2022-09-15T14:13:50.442Z,35.90
2022-09-15T14:16:24.063Z,35.40
2022-09-15T14:18:53.445Z,35.50
2022-09-15T14:21:21.341Z,35.10
2022-09-15T14:23:50.948Z,35.20
2022-09-15T14:26:23.933Z,35.60
2022-09-15T14:28:53.380Z,35.60
2022-09-15T14:31:32.345Z,35.50
2022-09-15T14:34:01.283Z,35.30
2022-09-15T14:36:31.271Z,35.30
2022-09-15T14:39:14.332Z,35.20
2022-09-15T14:41:42.509Z,35.00
2022-09-15T14:47:19.199Z,34.40
2022-09-15T14:49:47.261Z,34.50
2022-09-15T14:52:26.222Z,34.20
2022-09-15T14:54:56.811Z,34.20
2022-09-15T14:57:31.088Z,33.90
2022-09-15T15:00:08.143Z,33.60
2022-09-15T15:02:48.700Z,33.40
2022-09-15T15:05:19.721Z,33.10
2022-09-15T15:07:48.713Z,32.80
2022-09-15T15:10:36.192Z,33.00
2022-09-15T15:13:11.588Z,33.30
2022-09-15T15:15:39.738Z,33.60
2022-09-15T15:18:29.459Z,33.60
2022-09-15T15:20:59.959Z,33.50
2022-09-15T15:23:29.248Z,33.60
2022-09-15T15:26:17.217Z,33.60
2022-09-15T15:28:45.245Z,33.60
2022-09-15T15:31:13.120Z,33.50
2022-09-15T15:33:53.638Z,33.50
2022-09-15T15:36:25.859Z,33.30
2022-09-15T15:38:58.659Z,33.20
2022-09-15T15:41:28.790Z,33.00
2022-09-15T15:43:58.271Z,33.00
2022-09-15T15:46:45.104Z,32.90
2022-09-15T15:49:16.332Z,32.70
2022-09-15T15:51:45.071Z,32.40
2022-09-15T15:54:13.689Z,32.30
2022-09-15T15:56:41.634Z,32.10
2022-09-15T15:59:12.250Z,31.90
2022-09-15T16:01:40.550Z,31.60
2022-09-15T16:04:09.071Z,31.40
2022-09-15T16:06:37.210Z,31.30
2022-09-15T16:09:06.459Z,31.10
2022-09-15T16:11:35.558Z,30.80
2022-09-15T16:14:04.270Z,30.60
2022-09-15T16:16:32.438Z,30.40
2022-09-15T16:19:01.381Z,30.30
2022-09-15T16:21:39.836Z,30.20
2022-09-15T16:24:12.147Z,30.10
2022-09-15T16:26:40.484Z,29.90
2022-09-15T16:29:08.461Z,29.60
2022-09-15T16:31:37.588Z,29.40
2022-09-15T16:34:06.502Z,29.30
2022-09-15T16:36:34.990Z,29.20
2022-09-15T16:39:03.234Z,29.00
2022-09-15T16:41:33.854Z,28.80
2022-09-15T16:44:04.421Z,28.70
2022-09-15T16:46:33.436Z,28.50
2022-09-15T16:49:01.394Z,28.30
2022-09-15T16:51:31.574Z,28.30
2022-09-15T16:53:59.924Z,28.10
2022-09-15T16:56:31.619Z,28.00
2022-09-15T16:59:00.627Z,27.90
2022-09-15T17:01:28.885Z,27.80
2022-09-15T17:03:56.887Z,27.70
2022-09-15T17:06:24.941Z,27.70
2022-09-15T17:08:52.991Z,27.50
2022-09-15T17:11:24.124Z,27.40
2022-09-15T17:13:52.091Z,27.30
2022-09-15T17:16:20.466Z,27.20
2022-09-15T17:18:48.693Z,27.00
2022-09-15T17:21:18.892Z,27.00
2022-09-15T17:23:48.429Z,26.80
2022-09-15T17:26:20.487Z,26.80
2022-09-15T17:28:50.784Z,26.70
2022-09-15T17:31:26.171Z,26.60
2022-09-15T17:33:54.430Z,26.50
2022-09-15T17:36:22.386Z,26.50
2022-09-15T17:38:50.525Z,26.30
2022-09-15T17:41:20.142Z,26.30
2022-09-15T17:43:48.517Z,26.20
2022-09-15T17:46:16.504Z,26.10
2022-09-15T17:48:44.637Z,26.10
2022-09-15T17:51:17.553Z,25.90
2022-09-15T17:53:47.233Z,25.90
2022-09-15T17:56:15.304Z,25.80
2022-09-15T17:58:43.511Z,25.80
2022-09-15T18:01:15.617Z,25.60
2022-09-15T18:03:45.162Z,25.50
2022-09-15T18:06:13.331Z,25.50
2022-09-15T18:08:44.641Z,25.40
2022-09-15T18:11:14.192Z,25.40
2022-09-15T18:13:42.321Z,25.30
2022-09-15T18:16:14.276Z,25.20
2022-09-15T18:18:42.359Z,25.10
2022-09-15T18:21:15.095Z,25.10
2022-09-15T18:23:45.413Z,25.00
2022-09-15T18:26:13.330Z,24.90
2022-09-15T18:28:41.641Z,24.80
2022-09-15T18:31:12.947Z,24.80
2022-09-15T18:33:40.996Z,24.70
2022-09-15T18:36:09.560Z,24.60
2022-09-15T18:38:37.572Z,24.60
2022-09-15T18:41:09.339Z,24.50
2022-09-15T18:43:40.734Z,24.50
2022-09-15T18:46:08.752Z,24.40
2022-09-15T18:48:37.453Z,24.30
2022-09-15T18:51:10.817Z,24.30
2022-09-15T18:53:40.027Z,24.20
2022-09-15T18:56:15.046Z,24.10
2022-09-15T18:58:43.347Z,24.10
2022-09-15T19:01:11.752Z,24.00
2022-09-15T19:03:44.004Z,23.90
2022-09-15T19:06:12.423Z,23.90
2022-09-15T19:08:41.016Z,23.80
2022-09-15T19:11:09.733Z,23.80
2022-09-15T19:13:38.661Z,23.80
2022-09-15T19:16:07.263Z,23.70
2022-09-15T19:18:37.812Z,23.60
2022-09-15T19:21:07.202Z,23.50
2022-09-15T19:23:37.693Z,23.50
2022-09-15T19:26:06.979Z,23.50
2022-09-15T19:28:35.236Z,23.40
2022-09-15T19:31:03.226Z,23.40
2022-09-15T19:33:31.379Z,23.30
2022-09-15T19:36:26.780Z,23.30
2022-09-15T19:38:54.800Z,23.20
2022-09-15T19:41:22.788Z,23.10
2022-09-15T19:43:53.178Z,23.10
2022-09-15T19:46:24.368Z,23.00
2022-09-15T19:48:53.191Z,23.00
2022-09-15T19:51:21.661Z,22.90
2022-09-15T19:53:50.129Z,22.80
2022-09-15T19:56:20.126Z,22.70
2022-09-15T19:58:48.563Z,22.70
2022-09-15T20:01:16.687Z,22.60
2022-09-15T20:03:46.890Z,22.60
2022-09-15T20:06:18.183Z,22.50
2022-09-15T20:08:47.638Z,22.50
2022-09-15T20:11:15.900Z,22.40
2022-09-15T20:13:44.329Z,22.30
2022-09-15T20:16:17.929Z,22.30
2022-09-15T20:18:48.230Z,22.20
2022-09-15T20:21:27.120Z,22.10
2022-09-15T20:24:08.247Z,22.10
2022-09-15T20:26:36.995Z,22.00
2022-09-15T20:29:05.793Z,22.00
2022-09-15T20:31:36.380Z,22.00
2022-09-15T20:34:04.771Z,21.90
2022-09-15T20:36:34.474Z,21.90
2022-09-15T20:39:05.756Z,21.80
2022-09-15T20:41:34.770Z,21.70
2022-09-15T20:44:02.804Z,21.70
2022-09-15T20:46:31.630Z,21.60
2022-09-15T20:49:02.040Z,21.60
2022-09-15T20:51:34.035Z,21.60
2022-09-15T20:54:05.320Z,21.60
2022-09-15T20:56:35.388Z,21.50
2022-09-15T20:59:04.993Z,21.50
2022-09-15T21:01:36.403Z,21.50
2022-09-15T21:04:05.223Z,21.40
2022-09-15T21:06:33.685Z,21.30
2022-09-15T21:09:01.644Z,21.30
2022-09-15T21:11:30.369Z,21.20
2022-09-15T21:13:59.029Z,21.20
2022-09-15T21:16:28.338Z,21.10
2022-09-15T21:18:57.301Z,21.00
2022-09-15T21:21:26.597Z,21.00
2022-09-15T21:23:58.961Z,20.90
2022-09-15T21:26:28.022Z,20.90
2022-09-15T21:28:58.650Z,20.80
2022-09-15T21:31:27.680Z,20.80
2022-09-15T21:33:56.650Z,20.70
2022-09-15T21:36:29.898Z,20.70
2022-09-15T21:38:58.557Z,20.60
2022-09-15T21:41:27.871Z,20.60
2022-09-15T21:43:59.217Z,20.50
2022-09-15T21:46:30.663Z,20.50
2022-09-15T21:48:59.604Z,20.40
2022-09-15T21:51:31.249Z,20.30
2022-09-15T21:53:59.932Z,20.30
2022-09-15T21:56:28.757Z,20.20
2022-09-15T21:58:56.803Z,20.20
2022-09-15T22:01:26.256Z,20.10
2022-09-15T22:04:05.369Z,20.00
2022-09-15T22:06:34.890Z,20.00
2022-09-15T22:09:06.348Z,20.00
2022-09-15T22:11:34.883Z,19.90
2022-09-15T22:14:04.204Z,19.90
2022-09-15T22:16:32.350Z,19.80
2022-09-15T22:19:00.326Z,19.80
2022-09-15T22:21:29.831Z,19.70
2022-09-15T22:23:59.383Z,19.70
2022-09-15T22:26:28.879Z,19.70
2022-09-15T22:28:57.173Z,19.70
2022-09-15T22:31:25.925Z,19.60
2022-09-15T22:33:54.199Z,19.60
2022-09-15T22:36:28.637Z,19.60
2022-09-15T22:39:03.222Z,19.50
2022-09-15T22:41:32.742Z,19.50
2022-09-15T22:44:00.611Z,19.50
2022-09-15T22:46:28.625Z,19.40
2022-09-15T22:48:56.521Z,19.40
2022-09-15T22:51:24.504Z,19.30
2022-09-15T22:53:57.196Z,19.30
2022-09-15T22:56:26.711Z,19.30
2022-09-15T22:58:55.712Z,19.20
2022-09-15T23:01:28.260Z,19.20
2022-09-15T23:03:57.502Z,19.20
2022-09-15T23:06:26.691Z,19.10
2022-09-15T23:08:55.829Z,19.10
2022-09-15T23:11:24.674Z,19.10
2022-09-15T23:13:53.653Z,19.00
2022-09-15T23:16:24.411Z,19.00
2022-09-15T23:18:53.050Z,19.00
2022-09-15T23:21:21.469Z,18.90
2022-09-15T23:23:49.623Z,18.90
2022-09-15T23:26:18.841Z,18.90
2022-09-15T23:28:49.955Z,18.90
2022-09-15T23:31:20.210Z,18.90
2022-09-15T23:33:49.145Z,18.90
2022-09-15T23:36:19.897Z,18.80
2022-09-15T23:38:48.510Z,18.80
2022-09-15T23:41:17.237Z,18.80
2022-09-15T23:43:45.591Z,18.80
2022-09-15T23:46:13.839Z,18.70
2022-09-15T23:48:42.121Z,18.70
2022-09-15T23:51:12.479Z,18.70
2022-09-15T23:53:44.286Z,18.70
2022-09-15T23:56:15.799Z,18.70
2022-09-15T23:58:44.001Z,18.60
